Time;durP1;ratioP1;P1;durP2;ratioP2;P2;SDS_P1;SDS_P2;PMS_P1;PMS_P2;Temp;Humidity;BMP_temperature;BMP_pressure;BME280_temperature;BME280_humidity;BME280_pressure;Samples;Min_cycle;Max_cycle;Signal;HPM_P1;HPM_P2
2021/09/05 00:04:29;;;;;;;10.65;7.28;;;;;;;8.61;72.85;100538.27;256211;1101;115258;-64
2021/09/05 00:09:32;;;;;;;10.58;7.45;;;;;;;8.65;73.74;100544.82;257104;1101;115036;-65
2021/09/05 00:14:35;;;;;;;7.65;6.85;;;;;;;8.69;74.51;100533.59;256182;1101;118209;-63
2021/09/05 00:19:38;;;;;;;11.58;6.40;;;;;;;8.85;74.65;100548.34;256154;1101;115409;-66
2021/09/05 00:24:42;;;;;;;8.95;6.65;;;;;;;8.94;74.76;100544.44;255102;1101;115934;-63
2021/09/05 00:29:45;;;;;;;10.78;7.70;;;;;;;8.96;74.42;100553.03;254869;1103;115483;-64
2021/09/05 00:34:48;;;;;;;9.78;7.28;;;;;;;8.90;73.69;100551.18;254795;1101;115850;-65
2021/09/05 00:39:51;;;;;;;10.67;7.97;;;;;;;8.87;73.98;100540.13;255220;1101;115115;-67
2021/09/05 00:44:54;;;;;;;11.95;8.30;;;;;;;8.82;74.08;100545.27;254904;1101;115669;-66
2021/09/05 00:49:57;;;;;;;12.20;7.38;;;;;;;8.78;75.00;100550.17;254517;1101;115642;-66
2021/09/05 00:55:01;;;;;;;13.23;9.00;;;;;;;8.81;75.29;100562.23;255642;1101;116535;-66
2021/09/05 01:00:07;;;;;;;12.37;9.23;;;;;;;8.74;74.54;100565.70;255636;1104;115091;-64
2021/09/05 01:05:11;;;;;;;13.93;9.40;;;;;;;8.64;74.44;100567.11;254994;1101;116319;-64
2021/09/05 01:10:14;;;;;;;9.63;8.18;;;;;;;8.53;74.27;100567.72;255301;1101;115704;-65
2021/09/05 01:15:17;;;;;;;11.95;8.30;;;;;;;8.43;73.92;100566.25;254530;1101;115725;-64
2021/09/05 01:20:21;;;;;;;16.95;9.38;;;;;;;8.36;74.25;100583.19;254201;1102;116517;-67
2021/09/05 01:25:24;;;;;;;10.47;8.90;;;;;;;8.31;74.28;100591.71;255464;1101;116228;-65
2021/09/05 01:30:27;;;;;;;10.13;7.55;;;;;;;8.36;74.80;100589.31;254613;1101;116364;-65
2021/09/05 01:35:34;;;;;;;11.55;7.60;;;;;;;8.25;74.49;100597.84;255215;1097;116371;-66
2021/09/05 01:40:37;;;;;;;;;;;;;;;8.04;74.50;100598.75;255061;1101;117358;-66
2021/09/05 01:45:40;;;;;;;10.58;6.60;;;;;;;7.85;74.61;100596.83;257634;1101;103091;-65
2021/09/05 01:50:43;;;;;;;30.20;8.70;;;;;;;7.80;74.31;100606.39;256266;1101;115039;-65
2021/09/05 01:55:45;;;;;;;9.78;8.13;;;;;;;7.69;73.96;100599.78;255460;1096;117223;-67
2021/09/05 02:00:49;;;;;;;10.75;9.20;;;;;;;7.57;75.08;100594.21;257454;1101;116163;-65
2021/09/05 02:05:52;;;;;;;9.05;7.53;;;;;;;7.49;74.53;100596.19;257323;1101;115639;-65
2021/09/05 02:10:55;;;;;;;11.93;7.40;;;;;;;7.59;75.21;100600.15;256855;1103;114634;-65
2021/09/05 02:15:58;;;;;;;9.48;7.40;;;;;;;7.73;75.24;100617.78;257126;1104;116254;-65
2021/09/05 02:21:02;;;;;;;7.88;5.78;;;;;;;7.79;74.79;100613.53;255600;1103;115951;-64
2021/09/05 02:26:06;;;;;;;15.10;7.03;;;;;;;7.72;75.36;100618.79;254877;1104;115287;-66
2021/09/05 02:31:09;;;;;;;6.30;5.50;;;;;;;7.72;74.99;100621.45;254615;1102;115633;-65
2021/09/05 02:36:12;;;;;;;13.23;7.38;;;;;;;7.67;74.48;100623.86;254982;1102;116739;-64
2021/09/05 02:41:15;;;;;;;8.98;6.40;;;;;;;7.53;75.22;100613.36;254775;1096;116356;-66
2021/09/05 02:46:18;;;;;;;6.83;5.93;;;;;;;7.40;74.86;100625.50;254252;1103;115455;-65
2021/09/05 02:51:21;;;;;;;9.95;6.68;;;;;;;7.37;74.90;100617.10;254143;1104;115712;-65
2021/09/05 02:56:25;;;;;;;8.68;5.80;;;;;;;7.39;75.50;100633.65;254229;1102;118094;-65
2021/09/05 03:01:28;;;;;;;8.40;7.57;;;;;;;7.43;76.36;100641.03;254434;1104;115375;-66
2021/09/05 03:06:31;;;;;;;8.30;5.80;;;;;;;7.41;75.25;100634.28;254209;1097;114666;-65
2021/09/05 03:11:34;;;;;;;8.45;5.68;;;;;;;7.31;76.24;100636.46;254557;1096;115662;-65
2021/09/05 03:16:39;;;;;;;11.73;5.65;;;;;;;7.21;76.32;100644.73;254971;1101;116248;-65
2021/09/05 03:21:43;;;;;;;10.63;6.68;;;;;;;7.18;76.10;100641.64;254963;1101;115758;-65
2021/09/05 03:26:46;;;;;;;9.78;6.28;;;;;;;7.06;75.84;100639.48;255584;1101;115542;-65
2021/09/05 03:31:50;;;;;;;6.57;5.93;;;;;;;7.07;76.01;100641.13;254805;1101;115523;-64
2021/09/05 03:36:53;;;;;;;8.25;5.60;;;;;;;7.12;76.60;100647.70;255685;1101;115495;-65
2021/09/05 03:41:56;;;;;;;12.23;5.90;;;;;;;7.16;76.86;100648.96;255495;1103;115569;-65
2021/09/05 03:46:59;;;;;;;11.23;7.58;;;;;;;7.10;75.96;100651.36;256050;1103;119632;-65
2021/09/05 03:52:02;;;;;;;6.98;5.40;;;;;;;7.03;75.92;100662.93;257194;1104;115942;-65
2021/09/05 03:57:07;;;;;;;8.85;5.83;;;;;;;7.04;76.51;100668.02;256379;1096;115939;-65
2021/09/05 04:02:10;;;;;;;7.88;5.78;;;;;;;7.10;76.79;100671.75;257205;1103;115273;-65
2021/09/05 04:07:17;;;;;;;7.03;5.85;;;;;;;7.07;76.12;100680.07;256825;1103;115263;-65
2021/09/05 04:12:21;;;;;;;8.57;4.73;;;;;;;7.08;76.40;100674.59;257525;1101;115094;-64
2021/09/05 04:17:25;;;;;;;7.58;5.53;;;;;;;7.13;76.49;100678.50;256246;1101;115550;-65
2021/09/05 04:22:28;;;;;;;5.20;4.73;;;;;;;7.21;76.61;100686.34;255382;1104;115583;-65
2021/09/05 04:27:31;;;;;;;7.98;5.73;;;;;;;7.17;76.93;100682.42;254286;1101;115339;-64
2021/09/05 04:32:35;;;;;;;7.27;5.60;;;;;;;7.27;77.32;100673.15;255387;1101;115439;-65
2021/09/05 04:37:39;;;;;;;53.30;8.73;;;;;;;7.40;77.04;100694.47;256390;1101;115866;-65
2021/09/05 04:42:42;;;;;;;9.40;6.28;;;;;;;7.66;76.84;100693.86;254437;1102;116300;-65
2021/09/05 04:47:46;;;;;;;9.07;6.27;;;;;;;7.91;77.37;100701.42;255271;1104;116963;-68
2021/09/05 04:52:49;;;;;;;11.33;8.38;;;;;;;8.00;77.44;100711.67;255030;1104;115683;-65
2021/09/05 04:57:53;;;;;;;12.23;7.85;;;;;;;8.11;77.62;100705.84;254492;1098;116911;-65
2021/09/05 05:02:57;;;;;;;8.55;6.48;;;;;;;8.25;77.50;100708.58;254662;1104;115999;-68
2021/09/05 05:08:01;;;;;;;9.20;7.25;;;;;;;8.35;77.35;100720.51;254461;1104;115056;-65
2021/09/05 05:13:03;;;;;;;7.05;6.38;;;;;;;8.54;77.06;100723.48;254715;1103;115421;-66
2021/09/05 05:18:06;;;;;;;10.83;8.20;;;;;;;8.67;78.16;100731.50;254738;1103;115997;-65
2021/09/05 05:23:09;;;;;;;10.55;7.90;;;;;;;8.86;77.58;100729.95;255260;1101;116105;-65
2021/09/05 05:28:12;;;;;;;14.03;8.20;;;;;;;9.03;77.64;100734.70;254312;1101;115210;-64
2021/09/05 05:33:15;;;;;;;9.75;6.23;;;;;;;9.20;77.62;100739.64;256342;1101;117525;-65
2021/09/05 05:38:17;;;;;;;15.10;8.63;;;;;;;9.38;77.94;100739.91;254740;1104;115403;-68
2021/09/05 05:43:21;;;;;;;8.45;6.85;;;;;;;9.55;78.75;100733.16;256174;1103;115665;-66
2021/09/05 05:48:24;;;;;;;6.98;5.85;;;;;;;9.75;78.24;100743.84;256373;1101;115524;-65
2021/09/05 05:53:27;;;;;;;19.03;7.73;;;;;;;9.94;78.40;100742.17;254379;1097;115754;-65
2021/09/05 05:58:30;;;;;;;9.33;5.60;;;;;;;10.14;78.24;100748.30;255182;1101;116115;-65
2021/09/05 06:03:44;;;;;;;8.88;5.68;;;;;;;10.34;78.28;100754.46;257182;1103;117040;-65
2021/09/05 06:08:48;;;;;;;10.33;5.53;;;;;;;10.51;77.98;100764.66;257317;1101;115627;-66
2021/09/05 06:13:51;;;;;;;8.15;5.03;;;;;;;10.69;77.67;100773.66;256715;1101;115799;-66
2021/09/05 06:18:54;;;;;;;7.05;4.43;;;;;;;10.89;77.68;100767.41;257206;1101;116361;-66
2021/09/05 06:23:57;;;;;;;6.85;4.15;;;;;;;11.07;77.07;100781.69;256250;1104;116127;-66
2021/09/05 06:28:59;;;;;;;5.03;3.95;;;;;;;11.24;76.68;100782.03;254317;1104;115985;-67
2021/09/05 06:34:01;;;;;;;4.88;2.65;;;;;;;11.36;76.24;100785.64;254100;1104;115444;-67
2021/09/05 06:39:04;;;;;;;4.73;2.55;;;;;;;11.50;75.55;100793.59;254265;1104;115580;-66
2021/09/05 06:44:06;;;;;;;2.90;2.10;;;;;;;11.65;75.22;100791.42;254132;1096;115231;-67
2021/09/05 06:49:08;;;;;;;1.80;1.70;;;;;;;11.80;74.57;100799.98;254268;1102;115632;-66
2021/09/05 06:54:11;;;;;;;4.35;2.05;;;;;;;12.02;73.92;100803.09;254007;1097;115434;-67
2021/09/05 06:59:15;;;;;;;2.65;2.08;;;;;;;12.17;73.78;100814.30;254322;1102;115991;-66
2021/09/05 07:04:18;;;;;;;2.15;1.50;;;;;;;12.36;72.97;100823.98;254344;1102;115306;-66
2021/09/05 07:09:22;;;;;;;3.33;2.53;;;;;;;12.57;72.57;100824.59;254341;1101;115787;-65
2021/09/05 07:14:24;;;;;;;2.30;2.10;;;;;;;13.05;71.93;100833.55;254156;1097;116404;-65
2021/09/05 07:19:27;;;;;;;3.68;2.18;;;;;;;14.27;71.10;100827.91;254899;1101;115543;-65
2021/09/05 07:24:30;;;;;;;2.75;1.83;;;;;;;15.36;70.57;100834.30;254215;1102;139861;-66
2021/09/05 07:29:33;;;;;;;2.10;1.75;;;;;;;15.88;69.63;100840.42;254463;1104;116603;-65
2021/09/05 07:34:39;;;;;;;2.45;1.90;;;;;;;16.16;68.28;100839.53;255249;1102;115525;-65
2021/09/05 07:39:42;;;;;;;7.25;2.30;;;;;;;16.36;67.30;100831.77;254240;1101;115990;-66
2021/09/05 07:44:45;;;;;;;2.60;1.95;;;;;;;16.49;65.99;100841.39;253995;1104;115538;-65
2021/09/05 07:49:48;;;;;;;2.08;1.55;;;;;;;16.39;65.53;100843.92;254870;1103;118129;-66
2021/09/05 07:54:51;;;;;;;6.48;2.15;;;;;;;16.28;65.32;100852.89;254210;1101;115662;-66
2021/09/05 07:59:53;;;;;;;2.53;1.90;;;;;;;16.26;64.45;100857.69;254935;1101;115982;-66
2021/09/05 08:04:56;;;;;;;1.18;1.13;;;;;;;16.14;63.63;100873.94;257242;1101;115909;-66
2021/09/05 08:09:59;;;;;;;2.95;2.00;;;;;;;16.07;64.30;100873.27;257302;1101;116739;-64
2021/09/05 08:15:03;;;;;;;5.00;2.10;;;;;;;16.10;63.49;100873.60;257065;1101;118629;-65
2021/09/05 08:20:06;;;;;;;1.90;1.45;;;;;;;16.20;63.14;100880.22;254211;1101;115985;-66
2021/09/05 08:25:10;;;;;;;1.90;1.73;;;;;;;16.41;63.30;100868.72;254158;1101;116017;-67
2021/09/05 08:30:13;;;;;;;2.28;1.70;;;;;;;16.67;63.18;100878.02;254167;1104;115926;-67
2021/09/05 08:35:15;;;;;;;2.83;1.63;;;;;;;16.88;62.42;100877.23;254109;1097;115449;-67
2021/09/05 08:40:22;;;;;;;1.97;1.50;;;;;;;17.12;62.52;100881.31;255066;1104;115652;-64
2021/09/05 08:45:24;;;;;;;3.18;1.35;;;;;;;17.45;61.92;100882.25;255226;1101;115548;-65
2021/09/05 08:50:28;;;;;;;3.15;1.60;;;;;;;17.74;61.08;100888.27;254856;1101;116504;-69
2021/09/05 08:55:33;;;;;;;3.83;1.70;;;;;;;17.99;61.03;100893.13;254044;1101;115578;-66
2021/09/05 09:00:37;;;;;;;3.70;1.87;;;;;;;18.24;60.36;100890.64;254202;1096;116342;-65
2021/09/05 09:05:43;;;;;;;3.50;1.60;;;;;;;18.36;59.38;100893.97;254795;1102;115976;-65
2021/09/05 09:10:54;;;;;;;1.73;1.15;;;;;;;18.53;58.88;100896.53;254247;1101;115538;-66
2021/09/05 09:16:18;;;;;;;1.58;1.20;;;;;;;18.69;58.54;100900.98;254116;1101;115076;-67
2021/09/05 09:21:22;;;;;;;1.77;1.67;;;;;;;18.94;58.27;100894.95;255013;1101;115867;-66
2021/09/05 09:26:30;;;;;;;3.20;1.70;;;;;;;19.20;57.56;100889.67;254231;1101;116209;-66
2021/09/05 09:31:38;;;;;;;2.35;1.18;;;;;;;19.41;57.28;100896.77;254761;1096;115886;-67
2021/09/05 09:36:42;;;;;;;1.58;1.35;;;;;;;19.61;56.45;100896.86;254974;1104;115720;-66
2021/09/05 09:41:46;;;;;;;2.83;2.03;;;;;;;19.79;55.32;100893.68;254900;1101;115803;-67
2021/09/05 09:46:48;;;;;;;1.75;1.40;;;;;;;20.03;56.20;100893.98;254562;1104;115768;-66
2021/09/05 09:51:59;;;;;;;1.63;1.53;;;;;;;20.31;55.69;100892.63;254057;1102;115190;-67
2021/09/05 09:57:03;;;;;;;0.98;0.98;;;;;;;20.43;53.95;100886.98;255242;1097;115570;-66
2021/09/05 10:02:16;;;;;;;1.20;0.98;;;;;;;20.49;53.14;100886.69;254999;1103;115754;-67
2021/09/05 10:07:22;;;;;;;2.05;1.20;;;;;;;20.41;53.72;100883.73;257402;1101;115598;-66
2021/09/05 10:12:29;;;;;;;2.30;1.28;;;;;;;20.81;52.67;100880.13;257223;1102;115481;-66
2021/09/05 10:17:32;;;;;;;2.18;1.65;;;;;;;20.41;52.51;100873.72;257195;1101;116422;-67
2021/09/05 10:22:36;;;;;;;2.70;1.63;;;;;;;20.29;52.38;100881.27;256398;1101;115732;-66
2021/09/05 10:27:47;;;;;;;1.73;1.38;;;;;;;20.14;52.50;100879.38;255577;1102;116376;-66
2021/09/05 10:32:59;;;;;;;3.57;2.13;;;;;;;20.42;51.81;100869.92;254163;1102;117678;-65
2021/09/05 10:38:08;;;;;;;3.85;1.40;;;;;;;20.65;50.98;100881.27;254892;1102;115668;-65
2021/09/05 10:43:13;;;;;;;2.03;1.63;;;;;;;20.77;51.00;100881.80;254567;1101;115818;-65
2021/09/05 10:48:34;;;;;;;2.23;1.33;;;;;;;20.00;50.21;100886.39;255088;1097;116049;-66
2021/09/05 10:53:59;;;;;;;2.28;1.68;;;;;;;19.37;50.12;100885.67;254627;1096;116361;-67
2021/09/05 10:59:07;;;;;;;1.83;1.27;;;;;;;19.79;51.21;100882.05;254559;1104;115518;-66
2021/09/05 11:04:11;;;;;;;1.48;1.40;;;;;;;20.00;50.91;100883.69;254824;1102;115471;-66
2021/09/05 11:09:21;;;;;;;1.50;1.40;;;;;;;20.55;50.19;100883.98;254156;1101;115125;-66
2021/09/05 11:14:49;;;;;;;7.35;1.68;;;;;;;20.27;49.01;100888.84;254490;1104;115464;-67
2021/09/05 11:19:59;;;;;;;1.58;1.43;;;;;;;20.39;49.65;100883.19;254498;1104;116222;-67
2021/09/05 11:25:16;;;;;;;2.13;1.58;;;;;;;20.66;48.75;100874.76;254617;1104;117079;-66
2021/09/05 11:30:21;;;;;;;5.03;1.50;;;;;;;20.88;48.32;100872.53;254326;1101;115761;-65
2021/09/05 11:35:34;;;;;;;0.98;0.95;;;;;;;20.59;48.61;100885.06;254099;1102;115709;-67
2021/09/05 11:40:52;;;;;;;0.88;0.88;;;;;;;20.19;48.66;100882.06;254191;1101;115054;-67
2021/09/05 11:45:55;;;;;;;1.37;1.23;;;;;;;20.46;48.50;100878.32;254719;1101;115506;-66
2021/09/05 11:51:04;;;;;;;1.85;1.40;;;;;;;20.70;47.96;100875.84;254223;1102;115705;-66
2021/09/05 11:56:07;;;;;;;1.50;1.40;;;;;;;20.58;48.08;100884.25;256209;1101;115716;-66
2021/09/05 12:01:12;;;;;;;1.28;0.98;;;;;;;20.29;47.71;100877.74;256789;1101;115423;-66
2021/09/05 12:06:17;;;;;;;2.16;1.76;;;;;;;20.47;47.51;100883.47;254503;1104;118254;-66
2021/09/05 12:11:20;;;;;;;1.48;1.38;;;;;;;20.61;47.41;100869.34;254478;1104;118405;-67
2021/09/05 12:16:27;;;;;;;1.10;0.80;;;;;;;20.47;46.60;100872.63;257329;1101;116570;-67
2021/09/05 12:21:34;;;;;;;1.93;1.00;;;;;;;20.40;46.98;100869.38;257121;1104;116919;-68
2021/09/05 12:26:38;;;;;;;2.53;1.40;;;;;;;20.49;46.39;100869.63;256433;1101;116800;-68
2021/09/05 12:31:48;;;;;;;1.73;1.63;;;;;;;20.60;45.66;100865.02;255220;1101;116800;-68
2021/09/05 12:36:56;;;;;;;1.77;1.67;;;;;;;20.67;46.08;100866.36;254364;1096;115951;-67
2021/09/05 12:42:13;;;;;;;1.77;1.23;;;;;;;20.61;45.75;100863.92;255692;1101;115407;-67
2021/09/05 12:47:23;;;;;;;2.28;1.30;;;;;;;20.57;45.75;100869.08;254489;1101;115533;-69
2021/09/05 12:52:32;;;;;;;1.30;0.98;;;;;;;20.42;45.42;100869.92;255433;1101;117199;-68
2021/09/05 12:57:35;;;;;;;1.63;1.40;;;;;;;20.36;44.69;100868.27;254398;1101;116476;-68
2021/09/05 13:02:38;;;;;;;4.48;1.48;;;;;;;20.47;45.76;100871.82;254239;1096;117135;-66
2021/09/05 13:07:41;;;;;;;1.70;1.35;;;;;;;20.40;45.93;100863.97;254212;1103;117492;-66
2021/09/05 13:12:44;;;;;;;1.57;1.27;;;;;;;20.34;45.52;100878.55;254619;1101;211500;-66
2021/09/05 13:17:48;;;;;;;2.27;0.90;;;;;;;20.13;44.99;100871.53;254573;1101;115652;-67
2021/09/05 13:22:52;;;;;;;1.58;1.20;;;;;;;20.12;45.76;100872.61;254178;1101;115849;-67
2021/09/05 13:27:55;;;;;;;1.65;1.55;;;;;;;20.17;45.03;100870.72;254379;1104;115498;-66
2021/09/05 13:32:58;;;;;;;3.90;0.93;;;;;;;20.17;44.83;100862.59;254123;1102;115561;-67
2021/09/05 13:38:01;;;;;;;1.15;1.03;;;;;;;20.23;44.68;100857.16;254222;1104;117311;-68
2021/09/05 13:43:04;;;;;;;4.75;1.20;;;;;;;20.07;44.25;100856.36;254119;1103;115892;-68
2021/09/05 13:48:09;;;;;;;0.90;0.90;;;;;;;19.95;44.43;100858.51;253995;1103;115825;-68
2021/09/05 13:53:12;;;;;;;3.40;1.45;;;;;;;19.87;44.70;100851.76;254137;1103;115580;-69
2021/09/05 13:58:15;;;;;;;1.13;0.78;;;;;;;19.80;43.95;100851.20;255262;1104;116084;-67
2021/09/05 14:03:18;;;;;;;1.70;1.07;;;;;;;19.67;44.47;100844.41;254011;1097;115669;-67
2021/09/05 14:08:21;;;;;;;3.85;1.00;;;;;;;19.60;44.81;100846.55;256269;1101;117364;-67
2021/09/05 14:13:25;;;;;;;1.10;1.03;;;;;;;19.58;44.16;100851.41;257279;1101;116127;-67
2021/09/05 14:18:28;;;;;;;1.08;1.05;;;;;;;19.54;44.41;100849.53;256816;1103;116397;-67
2021/09/05 14:23:30;;;;;;;4.80;1.50;;;;;;;19.56;43.89;100845.48;257202;1102;115990;-66
2021/09/05 14:28:38;;;;;;;1.50;1.20;;;;;;;19.49;43.80;100844.89;257124;1104;118027;-66
2021/09/05 14:47:55;;;;;;;1.10;1.00;;;;;;;19.40;43.59;100854.59;254106;1102;115711;-67
2021/09/05 14:50:01;;;;;;;2.00;1.27;;;;;;;19.14;43.04;100837.48;254256;1101;209828;-67
2021/09/05 14:55:03;;;;;;;1.00;0.80;;;;;;;18.90;43.69;100837.11;254145;1102;115956;-64
2021/09/05 15:00:08;;;;;;;1.08;0.85;;;;;;;18.72;43.89;100834.84;255303;1101;117413;-65
2021/09/05 15:15:49;;;;;;;4.68;1.10;;;;;;;18.41;44.44;100844.59;254409;1101;114962;-68
2021/09/05 15:20:53;;;;;;;1.45;1.13;;;;;;;18.27;44.25;100833.45;254297;1102;115892;-66
2021/09/05 15:25:56;;;;;;;4.00;1.15;;;;;;;18.21;44.12;100834.48;254317;1103;117304;-66
2021/09/05 15:31:06;;;;;;;8.08;1.33;;;;;;;18.10;44.21;100838.16;253952;1101;116117;-69
2021/09/05 15:57:12;;;;;;;1.35;1.03;;;;;;;17.31;44.73;100833.33;254117;1101;116596;-66
2021/09/05 16:02:27;;;;;;;3.53;1.58;;;;;;;17.23;44.95;100827.56;254253;1104;115672;-66
2021/09/05 16:18:19;;;;;;;1.73;1.50;;;;;;;16.83;45.65;100829.50;257383;1101;117243;-68
2021/09/05 16:23:22;;;;;;;3.90;1.38;;;;;;;16.65;46.32;100826.30;256830;1104;115362;-68
2021/09/05 16:28:29;;;;;;;1.23;1.15;;;;;;;16.46;47.94;100823.05;256373;1101;116379;-67
2021/09/05 16:44:05;;;;;;;1.40;1.30;;;;;;;15.78;50.06;100837.55;254689;1102;116338;-67
2021/09/05 16:49:08;;;;;;;4.93;1.48;;;;;;;15.56;50.52;100839.27;254121;1101;115919;-65
2021/09/05 16:54:12;;;;;;;1.13;1.00;;;;;;;15.31;51.11;100851.13;254401;1101;115365;-66
2021/09/05 16:59:15;;;;;;;3.30;1.23;;;;;;;15.06;51.51;100851.44;254339;1101;115734;-66
2021/09/05 17:04:18;;;;;;;1.53;1.13;;;;;;;14.82;51.98;100852.54;254312;1101;115644;-66
2021/09/05 17:09:21;;;;;;;1.60;1.40;;;;;;;14.57;52.31;100858.16;254252;1097;115189;-66
2021/09/05 17:14:25;;;;;;;4.93;1.58;;;;;;;14.29;53.58;100856.14;254203;1101;115433;-67
2021/09/05 17:19:29;;;;;;;4.45;1.80;;;;;;;13.98;54.48;100859.93;254285;1103;115710;-67
2021/09/05 17:24:32;;;;;;;4.18;1.70;;;;;;;13.68;55.16;100869.86;254445;1101;115848;-65
2021/09/05 17:29:38;;;;;;;0.90;0.88;;;;;;;13.35;56.24;100870.30;254437;1104;116670;-65
2021/09/05 17:34:42;;;;;;;10.10;1.25;;;;;;;13.03;56.72;100867.75;254430;1103;116292;-67
2021/09/05 17:39:45;;;;;;;1.65;1.55;;;;;;;12.80;57.54;100875.63;254584;1101;116066;-67
2021/09/05 17:44:48;;;;;;;2.83;1.97;;;;;;;12.56;57.89;100884.48;254146;1104;115789;-66
2021/09/05 17:49:51;;;;;;;2.18;0.93;;;;;;;12.29;58.67;100891.91;254111;1104;115850;-67
2021/09/05 17:54:54;;;;;;;2.93;1.27;;;;;;;12.02;59.02;100893.96;254597;1101;115978;-65
2021/09/05 17:59:58;;;;;;;2.15;1.25;;;;;;;11.78;59.91;100907.06;254506;1101;115546;-65
2021/09/05 18:05:01;;;;;;;3.03;1.93;;;;;;;11.67;60.15;100912.21;255387;1101;116382;-66
2021/09/05 18:10:04;;;;;;;4.67;3.60;;;;;;;11.53;60.22;100911.47;254569;1102;207736;-64
2021/09/05 18:15:12;;;;;;;4.05;2.95;;;;;;;11.33;61.11;100914.20;254318;1097;116698;-66
2021/09/05 18:20:16;;;;;;;7.18;2.83;;;;;;;11.12;61.40;100907.30;254250;1096;119609;-65
2021/09/05 18:25:19;;;;;;;8.33;5.35;;;;;;;10.99;62.34;100918.02;255836;1096;117035;-65
2021/09/05 18:30:24;;;;;;;5.48;4.95;;;;;;;10.90;62.38;100913.10;255291;1102;116073;-65
2021/09/05 18:35:28;;;;;;;5.30;4.70;;;;;;;10.71;62.93;100920.91;257307;1102;116940;-65
2021/09/05 18:40:31;;;;;;;8.18;5.38;;;;;;;10.62;63.44;100918.68;256598;1102;117133;-65
2021/09/05 18:45:34;;;;;;;6.15;4.00;;;;;;;10.49;63.44;100916.83;254459;1101;116171;-66
2021/09/05 18:50:40;;;;;;;10.53;5.78;;;;;;;10.27;63.65;100913.55;254087;1096;116286;-68
2021/09/05 18:55:46;;;;;;;8.30;4.83;;;;;;;10.14;64.00;100908.98;255576;1104;212534;-66
2021/09/05 19:00:49;;;;;;;11.43;7.50;;;;;;;10.20;63.88;100907.38;254109;1102;116357;-65
2021/09/05 19:05:53;;;;;;;9.30;5.48;;;;;;;10.09;65.00;100911.42;256244;1101;116642;-65
2021/09/05 19:10:56;;;;;;;8.70;4.60;;;;;;;9.86;65.02;100915.48;254166;1102;116227;-65
2021/09/05 19:16:00;;;;;;;4.98;4.20;;;;;;;9.72;65.46;100910.14;254971;1101;116227;-66
2021/09/05 19:21:03;;;;;;;8.60;6.25;;;;;;;9.66;65.43;100912.78;254882;1102;116159;-66
2021/09/05 19:26:07;;;;;;;15.30;6.58;;;;;;;9.52;66.06;100909.23;254354;1097;115956;-66
2021/09/05 19:31:11;;;;;;;21.93;10.88;;;;;;;9.50;66.40;100916.59;254537;1101;116458;-67
2021/09/05 19:36:17;;;;;;;14.70;8.75;;;;;;;9.41;66.05;100923.13;254339;1096;116381;-67
2021/09/05 19:41:20;;;;;;;19.53;10.98;;;;;;;9.26;66.72;100925.09;254995;1101;117291;-66
2021/09/05 19:46:22;;;;;;;17.35;10.55;;;;;;;9.13;67.11;100925.86;253995;1096;116292;-66
2021/09/05 19:51:25;;;;;;;10.68;8.85;;;;;;;9.00;67.21;100915.95;255180;1102;117282;-65
2021/09/05 19:56:29;;;;;;;10.98;8.13;;;;;;;8.84;67.49;100921.59;254310;1101;116218;-65
2021/09/05 20:01:32;;;;;;;15.43;9.00;;;;;;;8.82;67.87;100925.45;254402;1104;116375;-67
2021/09/05 20:06:36;;;;;;;15.43;10.20;;;;;;;8.88;68.79;100924.66;255955;1101;118681;-65
2021/09/05 20:11:39;;;;;;;10.00;7.97;;;;;;;8.89;68.32;100923.64;254840;1104;116504;-67
2021/09/05 20:16:42;;;;;;;16.35;9.93;;;;;;;8.80;68.42;100922.98;254298;1102;116215;-65
2021/09/05 20:21:46;;;;;;;10.75;7.70;;;;;;;8.70;68.23;100927.81;257202;1101;116935;-65
2021/09/05 20:26:49;;;;;;;12.13;7.55;;;;;;;8.52;68.69;100922.98;257200;1101;117341;-66
2021/09/05 20:31:53;;;;;;;13.75;9.00;;;;;;;8.47;68.73;100927.23;257160;1101;117129;-66
2021/09/05 20:36:56;;;;;;;15.97;10.20;;;;;;;8.46;68.86;100922.92;255906;1104;116285;-66
2021/09/05 20:42:00;;;;;;;16.20;9.55;;;;;;;8.49;68.76;100926.02;255202;1102;116153;-66
2021/09/05 20:47:03;;;;;;;10.13;7.33;;;;;;;8.41;68.68;100932.29;254656;1102;209952;-65
2021/09/05 20:52:07;;;;;;;16.98;8.78;;;;;;;8.35;69.02;100937.54;256225;1104;117782;-67
2021/09/05 20:57:13;;;;;;;12.33;8.53;;;;;;;8.34;69.55;100925.27;255397;1101;115519;-67
2021/09/05 21:02:16;;;;;;;14.37;9.53;;;;;;;8.25;69.13;100942.34;255170;1101;116125;-66
2021/09/05 21:07:21;;;;;;;13.33;9.98;;;;;;;8.17;69.94;100935.31;255772;1101;115693;-67
2021/09/05 21:12:25;;;;;;;16.83;10.03;;;;;;;8.05;69.38;100942.13;254300;1101;119103;-66
2021/09/05 21:17:28;;;;;;;12.83;8.78;;;;;;;7.98;70.42;100938.57;254661;1104;115619;-65
2021/09/05 21:22:31;;;;;;;8.40;6.70;;;;;;;7.91;70.17;100929.73;254588;1101;115645;-65
2021/09/05 21:27:34;;;;;;;12.85;8.28;;;;;;;7.76;69.98;100933.23;254212;1101;116758;-66
2021/09/05 21:32:38;;;;;;;17.80;9.25;;;;;;;7.72;70.83;100937.27;254737;1101;115494;-64
2021/09/05 21:37:46;;;;;;;22.00;11.18;;;;;;;7.70;70.01;100930.50;255094;1096;115705;-64
2021/09/05 21:42:51;;;;;;;19.58;11.15;;;;;;;7.61;70.40;100937.77;254814;1096;115983;-65
2021/09/05 21:47:53;;;;;;;19.10;10.33;;;;;;;7.56;70.43;100937.50;256118;1102;118042;-66
2021/09/05 21:52:56;;;;;;;11.90;9.05;;;;;;;7.54;70.66;100942.17;254370;1104;116063;-70
2021/09/05 21:57:59;;;;;;;16.33;8.90;;;;;;;7.47;71.42;100943.09;255837;1101;115810;-67
2021/09/05 22:03:02;;;;;;;16.10;10.40;;;;;;;7.40;70.81;100943.00;255652;1104;115575;-66
2021/09/05 22:08:05;;;;;;;12.20;7.90;;;;;;;7.44;72.01;100944.28;255066;1103;116472;-65
2021/09/05 22:13:08;;;;;;;14.90;8.30;;;;;;;7.37;71.40;100946.02;254223;1098;115840;-66
2021/09/05 22:18:11;;;;;;;10.70;8.00;;;;;;;7.32;70.88;100943.95;254687;1101;173527;-68
2021/09/05 22:23:15;;;;;;;11.03;7.28;;;;;;;7.18;71.46;100950.06;257394;1104;115646;-66
2021/09/05 22:28:18;;;;;;;10.20;7.60;;;;;;;7.08;71.32;100950.32;257275;1102;116181;-67
2021/09/05 22:33:22;;;;;;;8.97;6.50;;;;;;;7.08;72.18;100945.02;257313;1101;116254;-67
2021/09/05 22:38:24;;;;;;;15.45;8.38;;;;;;;7.07;71.56;100942.55;256677;1102;115017;-67
2021/09/05 22:43:27;;;;;;;15.65;8.05;;;;;;;7.04;71.20;100946.38;255644;1097;115687;-66
2021/09/05 22:48:30;;;;;;;11.40;8.80;;;;;;;6.98;71.40;100943.66;256102;1101;115225;-67
2021/09/05 22:53:35;;;;;;;14.60;7.88;;;;;;;6.88;71.97;100938.62;254848;1104;116019;-65
2021/09/05 22:58:39;;;;;;;14.58;8.48;;;;;;;6.78;71.85;100939.88;254722;1103;117171;-65
2021/09/05 23:03:42;;;;;;;11.60;8.08;;;;;;;6.76;72.49;100934.75;255598;1104;116297;-66
2021/09/05 23:08:46;;;;;;;25.33;12.97;;;;;;;6.74;72.48;100934.11;255474;1101;115680;-66
2021/09/05 23:13:50;;;;;;;32.85;14.30;;;;;;;6.69;72.49;100939.15;255019;1101;116139;-66
2021/09/05 23:18:53;;;;;;;21.03;12.00;;;;;;;6.60;72.79;100942.87;254262;1097;115963;-65
2021/09/05 23:23:57;;;;;;;22.97;11.63;;;;;;;6.50;72.59;100939.63;255227;1097;116426;-66
2021/09/05 23:29:00;;;;;;;21.15;12.73;;;;;;;6.41;73.20;100947.67;254400;1104;115288;-65
2021/09/05 23:34:03;;;;;;;24.50;12.03;;;;;;;6.35;73.28;100940.43;254781;1101;117573;-65
2021/09/05 23:39:06;;;;;;;21.25;11.95;;;;;;;6.31;73.05;100935.66;254487;1104;115769;-66
2021/09/05 23:44:09;;;;;;;18.08;10.03;;;;;;;6.32;72.81;100935.48;254757;1101;115649;-65
2021/09/05 23:49:12;;;;;;;12.05;9.63;;;;;;;6.33;73.08;100931.84;255728;1101;115780;-65
2021/09/05 23:54:15;;;;;;;23.28;12.75;;;;;;;6.29;73.27;100927.06;255050;1101;116082;-65
2021/09/05 23:59:18;;;;;;;18.77;11.17;;;;;;;6.19;73.47;100937.89;254586;1103;116073;-67
